Terminal Aerodrome Forecast
Issued by NWS Albany, NY

Home | Current Version | Previous Version | Text Only | Print | Product List | Glossary On
Versions: 1 2 3 4 5 6 7 8 9 10 11 12 13 14 15 16 17 18 19 20
474
FTUS41 KALY 072343
TAFPOU
TAF
KPOU 072343Z 0800/0824 VRB04KT P6SM SCT200
     FM080600 VRB03KT P6SM BKN150 OVC250
     FM081200 04007KT P6SM BKN050 OVC100
     FM081500 02007KT P6SM VCSH SCT025 OVC040
     FM081900 03008KT 4SM -SN BR OVC025=

USA.gov is the U.S. government's official web portal to all federal, state and local government web resources and services.